Time;durP1;ratioP1;P1;durP2;ratioP2;P2;SDS_P1;SDS_P2;PMS_P1;PMS_P2;Temp;Humidity;BMP_temperature;BMP_pressure;BME280_temperature;BME280_humidity;BME280_pressure;Samples;Min_cycle;Max_cycle;Signal;HPM_P1;HPM_P2
2023/03/11 00:00:48;;;;;;;2.90;2.80;;;;;;;;;;4982532;28;20076;-64
2023/03/11 00:03:16;;;;;;;3.25;3.05;;;;;;;;;;4975656;28;20035;-67
2023/03/11 00:05:43;;;;;;;3.13;3.00;;;;;;;;;;4982469;28;20093;-66
2023/03/11 00:08:13;;;;;;;3.53;3.15;;;;;;;;;;4975661;28;20038;-66
2023/03/11 00:10:41;;;;;;;3.05;2.92;;;;;;;;;;4978196;28;20037;-64
2023/03/11 00:13:08;;;;;;;3.35;3.15;;;;;;;;;;4971664;28;20085;-66
2023/03/11 00:15:36;;;;;;;3.10;3.00;;;;;;;;;;4972304;28;20031;-66
2023/03/11 00:18:01;;;;;;;3.05;2.95;;;;;;;;;;4971633;28;20042;-66
2023/03/11 00:20:33;;;;;;;3.42;3.20;;;;;;;;;;4970370;28;20092;-66
2023/03/11 00:22:59;;;;;;;3.00;2.90;;;;;;;;;;4971679;28;20049;-66
2023/03/11 00:25:29;;;;;;;3.35;3.03;;;;;;;;;;4970774;28;20034;-66
2023/03/11 00:27:55;;;;;;;;;;;;;;;;;;4970434;28;20154;-66
2023/03/11 00:30:21;;;;;;;3.08;2.88;;;;;;;;;;4968852;28;20087;-66
2023/03/11 00:32:48;;;;;;;3.17;2.97;;;;;;;;;;4969596;28;20453;-66
2023/03/11 00:35:20;;;;;;;3.25;3.03;;;;;;;;;;4969919;28;20113;-66
2023/03/11 00:37:47;;;;;;;2.90;2.80;;;;;;;;;;4986210;28;20043;-65
2023/03/11 00:40:18;;;;;;;5.75;3.10;;;;;;;;;;4972004;28;20035;-65
2023/03/11 00:42:44;;;;;;;3.17;2.88;;;;;;;;;;4971105;28;20042;-65
2023/03/11 00:45:10;;;;;;;3.40;3.20;;;;;;;;;;4970931;28;20038;-66
2023/03/11 00:47:36;;;;;;;3.72;3.00;;;;;;;;;;4969680;28;20437;-66
2023/03/11 00:50:02;;;;;;;3.40;3.10;;;;;;;;;;4977691;28;20077;-65
2023/03/11 00:52:27;;;;;;;4.75;3.10;;;;;;;;;;4975214;28;20042;-65
2023/03/11 00:54:54;;;;;;;3.42;3.13;;;;;;;;;;4970083;28;20034;-66
2023/03/11 00:57:20;;;;;;;3.50;3.20;;;;;;;;;;4970254;28;20457;-65
2023/03/11 00:59:45;;;;;;;3.40;3.10;;;;;;;;;;4986465;28;20493;-65
2023/03/11 01:02:11;;;;;;;5.22;3.15;;;;;;;;;;4973284;28;20036;-66
2023/03/11 01:04:36;;;;;;;3.25;2.95;;;;;;;;;;4989834;28;20034;-65
2023/03/11 01:07:02;;;;;;;3.72;3.40;;;;;;;;;;4972357;28;20039;-65
2023/03/11 01:09:29;;;;;;;2.97;2.88;;;;;;;;;;4969613;28;20055;-66
2023/03/11 01:11:54;;;;;;;4.03;3.25;;;;;;;;;;4970326;28;20039;-65
2023/03/11 01:14:20;;;;;;;3.28;3.05;;;;;;;;;;4970439;28;20073;-66
2023/03/11 01:16:46;;;;;;;3.30;3.00;;;;;;;;;;4970330;28;20039;-66
2023/03/11 01:19:12;;;;;;;3.47;3.17;;;;;;;;;;4969193;28;20129;-66
2023/03/11 01:21:37;;;;;;;3.28;3.08;;;;;;;;;;4970428;28;20045;-66
2023/03/11 01:24:03;;;;;;;3.70;3.40;;;;;;;;;;4973012;28;20038;-66
2023/03/11 01:26:30;;;;;;;3.33;3.13;;;;;;;;;;4981827;28;20043;-67
2023/03/11 01:28:55;;;;;;;3.30;3.00;;;;;;;;;;4968896;28;20049;-64
2023/03/11 01:31:21;;;;;;;5.57;3.05;;;;;;;;;;4998707;28;20046;-65
2023/03/11 01:33:47;;;;;;;3.47;3.28;;;;;;;;;;4970116;28;20102;-64
2023/03/11 01:36:12;;;;;;;3.58;3.38;;;;;;;;;;4973339;28;20030;-64
2023/03/11 01:38:38;;;;;;;5.18;3.65;;;;;;;;;;4980159;28;20629;-64
2023/03/11 01:41:04;;;;;;;3.95;3.30;;;;;;;;;;4969224;28;20139;-64
2023/03/11 01:43:40;;;;;;;4.80;3.33;;;;;;;;;;4972747;28;20051;-65
2023/03/11 01:46:09;;;;;;;3.58;3.33;;;;;;;;;;4969302;28;20039;-64
2023/03/11 01:48:37;;;;;;;3.53;3.33;;;;;;;;;;4967943;28;20115;-65
2023/03/11 01:51:04;;;;;;;3.72;3.42;;;;;;;;;;4968520;28;20105;-67
2023/03/11 01:53:32;;;;;;;6.72;3.30;;;;;;;;;;4982601;28;20044;-65
2023/03/11 01:56:00;;;;;;;4.15;3.10;;;;;;;;;;4970399;28;20064;-67
2023/03/11 01:58:30;;;;;;;3.58;3.30;;;;;;;;;;4971462;28;20082;-66
2023/03/11 02:00:58;;;;;;;4.15;3.28;;;;;;;;;;4973132;28;20042;-68
2023/03/11 02:03:35;;;;;;;3.45;3.13;;;;;;;;;;4968359;28;20047;-67
2023/03/11 02:06:04;;;;;;;3.42;2.97;;;;;;;;;;4983725;28;20038;-67
2023/03/11 02:08:33;;;;;;;3.72;3.42;;;;;;;;;;4976488;28;20129;-66
2023/03/11 02:11:02;;;;;;;3.10;2.90;;;;;;;;;;4970779;28;20506;-66
2023/03/11 02:13:28;;;;;;;3.90;3.47;;;;;;;;;;4980683;28;20050;-67
2023/03/11 02:15:54;;;;;;;3.63;3.33;;;;;;;;;;4970110;28;20502;-66
2023/03/11 02:18:21;;;;;;;3.97;3.20;;;;;;;;;;4972456;28;20110;-66
2023/03/11 02:21:05;;;;;;;3.67;3.33;;;;;;;;;;4968464;28;20043;-66
2023/03/11 02:23:49;;;;;;;3.10;2.90;;;;;;;;;;4967272;28;20069;-66
2023/03/11 02:26:20;;;;;;;4.32;3.50;;;;;;;;;;4996850;28;20057;-66
2023/03/11 02:28:47;;;;;;;4.43;3.47;;;;;;;;;;4967186;28;20159;-66
2023/03/11 02:31:14;;;;;;;5.10;3.25;;;;;;;;;;4969158;28;20391;-66
2023/03/11 02:33:41;;;;;;;3.40;3.10;;;;;;;;;;4968856;28;20045;-66
2023/03/11 02:36:34;;;;;;;4.10;3.50;;;;;;;;;;4969599;28;20129;-67
2023/03/11 02:39:02;;;;;;;5.00;3.40;;;;;;;;;;4970532;28;20556;-66
2023/03/11 02:41:30;;;;;;;3.63;3.33;;;;;;;;;;4969549;28;20418;-66
2023/03/11 02:43:57;;;;;;;3.92;3.20;;;;;;;;;;4967188;28;20042;-66
2023/03/11 02:46:24;;;;;;;6.25;3.40;;;;;;;;;;4970417;28;20049;-66
2023/03/11 02:48:51;;;;;;;3.40;3.10;;;;;;;;;;4972897;28;20073;-66
2023/03/11 02:51:16;;;;;;;3.30;3.10;;;;;;;;;;4974908;28;20041;-66
2023/03/11 02:53:46;;;;;;;5.28;3.45;;;;;;;;;;4972126;28;20405;-66
2023/03/11 02:56:13;;;;;;;5.85;3.10;;;;;;;;;;4973144;28;20030;-66
2023/03/11 02:58:39;;;;;;;4.38;3.00;;;;;;;;;;4985772;28;20394;-66
2023/03/11 03:01:04;;;;;;;3.92;3.20;;;;;;;;;;4971686;28;20097;-66
2023/03/11 03:03:30;;;;;;;3.10;2.90;;;;;;;;;;4974294;28;20071;-66
2023/03/11 03:05:56;;;;;;;2.97;2.72;;;;;;;;;;4983953;28;20038;-66
2023/03/11 03:08:21;;;;;;;3.78;3.40;;;;;;;;;;4971548;28;20471;-66
2023/03/11 03:10:47;;;;;;;3.22;2.92;;;;;;;;;;4973145;28;20030;-66
2023/03/11 03:13:12;;;;;;;3.38;3.08;;;;;;;;;;4970928;28;20097;-66
2023/03/11 03:15:38;;;;;;;4.55;3.15;;;;;;;;;;4973272;28;20454;-67
2023/03/11 03:18:05;;;;;;;4.28;3.00;;;;;;;;;;4976974;28;20094;-66
2023/03/11 03:20:30;;;;;;;3.63;3.10;;;;;;;;;;4974079;28;20034;-66
2023/03/11 03:23:00;;;;;;;3.97;3.10;;;;;;;;;;4975543;28;20541;-66
2023/03/11 03:25:28;;;;;;;3.45;2.80;;;;;;;;;;4977101;28;20058;-66
2023/03/11 03:27:56;;;;;;;6.68;3.10;;;;;;;;;;4977443;28;20038;-66
2023/03/11 03:30:23;;;;;;;5.13;3.20;;;;;;;;;;4974365;28;20494;-66
2023/03/11 03:32:49;;;;;;;5.28;2.90;;;;;;;;;;4976674;28;20085;-66
2023/03/11 03:35:16;;;;;;;3.17;2.88;;;;;;;;;;4974127;28;20102;-66
2023/03/11 03:38:00;;;;;;;3.40;3.05;;;;;;;;;;4974833;28;20034;-66
2023/03/11 03:40:26;;;;;;;4.80;3.08;;;;;;;;;;4971280;28;20485;-66
2023/03/11 03:42:54;;;;;;;4.63;2.83;;;;;;;;;;4972377;28;20053;-66
2023/03/11 03:45:20;;;;;;;7.38;3.28;;;;;;;;;;5004808;28;20042;-66
2023/03/11 03:47:49;;;;;;;4.25;2.83;;;;;;;;;;4972446;28;20395;-66
2023/03/11 03:50:16;;;;;;;5.03;2.92;;;;;;;;;;4970368;28;20043;-66
2023/03/11 03:52:44;;;;;;;3.05;2.85;;;;;;;;;;4986381;28;20038;-66
2023/03/11 03:55:10;;;;;;;10.52;3.08;;;;;;;;;;4971476;28;20041;-66
2023/03/11 03:57:36;;;;;;;2.90;2.70;;;;;;;;;;4968618;28;20150;-66
2023/03/11 04:00:03;;;;;;;4.15;3.00;;;;;;;;;;4973766;28;20468;-66
2023/03/11 04:02:39;;;;;;;3.03;2.83;;;;;;;;;;4971636;28;20513;-66
2023/03/11 04:05:08;;;;;;;3.00;2.80;;;;;;;;;;4962564;28;20038;-65
2023/03/11 04:07:35;;;;;;;6.78;3.08;;;;;;;;;;4968806;28;20042;-66
2023/03/11 04:10:03;;;;;;;3.22;2.83;;;;;;;;;;4969916;28;20065;-66
2023/03/11 04:12:30;;;;;;;4.72;2.80;;;;;;;;;;4990126;28;20119;-66
2023/03/11 04:14:56;;;;;;;5.90;3.22;;;;;;;;;;4974913;28;20061;-66
2023/03/11 04:17:22;;;;;;;4.88;3.05;;;;;;;;;;4969802;28;20050;-66
2023/03/11 04:19:49;;;;;;;3.50;2.67;;;;;;;;;;4969590;28;20486;-65
2023/03/11 04:22:15;;;;;;;4.10;2.80;;;;;;;;;;4969779;28;20038;-66
2023/03/11 04:24:40;;;;;;;6.78;2.88;;;;;;;;;;4973734;28;20049;-66
2023/03/11 04:27:06;;;;;;;3.00;2.70;;;;;;;;;;4972702;28;20043;-66
2023/03/11 04:29:33;;;;;;;3.92;2.58;;;;;;;;;;4970108;28;20379;-66
2023/03/11 04:31:59;;;;;;;5.00;2.55;;;;;;;;;;4970252;28;20520;-65
2023/03/11 04:34:24;;;;;;;2.67;2.58;;;;;;;;;;4968895;28;20061;-65
2023/03/11 04:36:52;;;;;;;6.03;2.95;;;;;;;;;;4971094;28;20038;-65
2023/03/11 04:39:19;;;;;;;4.07;2.78;;;;;;;;;;4975837;28;20142;-65
2023/03/11 04:41:46;;;;;;;4.95;2.85;;;;;;;;;;4976553;28;20073;-65
2023/03/11 04:44:16;;;;;;;2.83;2.60;;;;;;;;;;4974318;28;20088;-65
2023/03/11 04:46:42;;;;;;;5.78;2.85;;;;;;;;;;4973096;28;20094;-67
2023/03/11 04:49:09;;;;;;;3.42;2.88;;;;;;;;;;4984721;28;20034;-65
2023/03/11 04:51:35;;;;;;;3.63;2.55;;;;;;;;;;4982182;28;20070;-65
2023/03/11 04:54:01;;;;;;;3.47;2.50;;;;;;;;;;4969173;28;20533;-65
2023/03/11 04:56:28;;;;;;;4.85;2.58;;;;;;;;;;4980838;28;20038;-65
2023/03/11 04:58:54;;;;;;;2.70;2.50;;;;;;;;;;4969165;28;20038;-65
2023/03/11 05:01:21;;;;;;;4.65;2.75;;;;;;;;;;4955304;28;20145;-65
2023/03/11 05:03:47;;;;;;;4.13;2.60;;;;;;;;;;4969009;28;20118;-67
2023/03/11 05:06:13;;;;;;;2.70;2.42;;;;;;;;;;4978203;28;20074;-66
2023/03/11 05:08:40;;;;;;;3.63;2.78;;;;;;;;;;4974326;28;20050;-66
2023/03/11 05:11:06;;;;;;;3.47;2.55;;;;;;;;;;4976429;28;20109;-66
2023/03/11 05:13:32;;;;;;;4.93;2.83;;;;;;;;;;4970167;28;20049;-66
2023/03/11 05:15:57;;;;;;;4.85;2.70;;;;;;;;;;4968642;28;20122;-66
2023/03/11 05:18:23;;;;;;;3.05;2.65;;;;;;;;;;4966304;28;20098;-66
2023/03/11 05:20:50;;;;;;;3.35;2.70;;;;;;;;;;4985638;28;20074;-66
2023/03/11 05:23:19;;;;;;;2.95;2.50;;;;;;;;;;4969637;28;20739;-66
2023/03/11 05:25:44;;;;;;;3.20;2.67;;;;;;;;;;4969557;28;20114;-66
2023/03/11 05:28:10;;;;;;;3.00;2.60;;;;;;;;;;4965687;28;20031;-66
2023/03/11 05:30:41;;;;;;;2.83;2.63;;;;;;;;;;4970334;28;20070;-66
2023/03/11 05:33:08;;;;;;;3.65;2.70;;;;;;;;;;4968948;28;20034;-66
2023/03/11 05:35:34;;;;;;;3.08;2.60;;;;;;;;;;4973595;28;20030;-66
2023/03/11 05:38:00;;;;;;;2.88;2.67;;;;;;;;;;4968968;28;20445;-66
2023/03/11 05:40:27;;;;;;;7.50;3.00;;;;;;;;;;4973756;28;20092;-66
2023/03/11 05:42:53;;;;;;;6.80;2.97;;;;;;;;;;4969513;28;20046;-66
2023/03/11 05:45:19;;;;;;;5.70;2.88;;;;;;;;;;4954862;28;20117;-66
2023/03/11 05:47:47;;;;;;;5.45;2.75;;;;;;;;;;4970149;28;20133;-66
2023/03/11 05:50:15;;;;;;;5.18;2.50;;;;;;;;;;4974153;28;20038;-64
2023/03/11 05:52:42;;;;;;;5.57;3.22;;;;;;;;;;4965641;28;20042;-66
2023/03/11 05:55:11;;;;;;;2.90;2.70;;;;;;;;;;4967316;28;20125;-66
2023/03/11 05:57:38;;;;;;;;;;;;;;;;;;4970567;28;20035;-67
2023/03/11 06:00:10;;;;;;;2.97;2.72;;;;;;;;;;4970265;28;19968;-66
2023/03/11 06:02:40;;;;;;;3.15;2.85;;;;;;;;;;4967887;28;20070;-66
2023/03/11 06:05:07;;;;;;;3.00;2.70;;;;;;;;;;4965094;28;20052;-66
2023/03/11 06:07:35;;;;;;;4.00;2.75;;;;;;;;;;4982018;28;20145;-66
2023/03/11 06:10:03;;;;;;;4.63;2.60;;;;;;;;;;4979228;28;20573;-66
2023/03/11 06:12:33;;;;;;;3.80;2.78;;;;;;;;;;4984321;28;20050;-66
2023/03/11 06:15:21;;;;;;;4.13;3.22;;;;;;;;;;4970683;28;20065;-67
2023/03/11 06:17:47;;;;;;;4.00;2.95;;;;;;;;;;4973392;28;20042;-66
2023/03/11 06:20:13;;;;;;;6.55;3.08;;;;;;;;;;4968739;28;20146;-65
2023/03/11 06:22:40;;;;;;;3.35;3.05;;;;;;;;;;4971052;28;20035;-66
2023/03/11 06:25:07;;;;;;;3.25;3.00;;;;;;;;;;4982646;28;20043;-66
2023/03/11 06:27:33;;;;;;;5.38;3.00;;;;;;;;;;4966619;28;20034;-66
2023/03/11 06:29:59;;;;;;;4.90;2.90;;;;;;;;;;4972994;28;20053;-67
2023/03/11 06:32:28;;;;;;;3.92;3.13;;;;;;;;;;4967879;28;20118;-66
2023/03/11 06:34:53;;;;;;;6.35;2.60;;;;;;;;;;4968856;28;20067;-66
2023/03/11 06:37:22;;;;;;;4.32;2.90;;;;;;;;;;4968421;28;20038;-66
2023/03/11 06:39:52;;;;;;;3.72;3.03;;;;;;;;;;4967210;28;20039;-67
2023/03/11 06:42:22;;;;;;;2.80;2.65;;;;;;;;;;4968772;28;20039;-67
2023/03/11 06:44:49;;;;;;;4.85;2.83;;;;;;;;;;4969251;28;20049;-67
2023/03/11 06:47:15;;;;;;;4.55;2.85;;;;;;;;;;4973732;28;20034;-64
2023/03/11 06:49:41;;;;;;;2.58;2.47;;;;;;;;;;4979384;28;20245;-65
2023/03/11 06:52:08;;;;;;;8.43;3.10;;;;;;;;;;4968574;28;20490;-67
2023/03/11 06:54:34;;;;;;;8.45;3.22;;;;;;;;;;4969292;28;20106;-65
2023/03/11 06:57:00;;;;;;;4.28;2.80;;;;;;;;;;4970493;28;20059;-67
2023/03/11 06:59:27;;;;;;;5.72;2.90;;;;;;;;;;4981397;28;20125;-64
2023/03/11 07:01:54;;;;;;;5.95;2.90;;;;;;;;;;4969038;28;20054;-67
2023/03/11 07:04:20;;;;;;;6.90;2.80;;;;;;;;;;4976113;28;20042;-67
2023/03/11 07:06:46;;;;;;;5.45;3.25;;;;;;;;;;4970558;28;20102;-65
2023/03/11 07:09:17;;;;;;;3.80;2.83;;;;;;;;;;4982900;28;20126;-65
2023/03/11 07:11:44;;;;;;;8.30;3.28;;;;;;;;;;4967749;28;20044;-66
2023/03/11 07:14:14;;;;;;;7.13;3.42;;;;;;;;;;4968451;28;20042;-64
2023/03/11 07:16:44;;;;;;;3.45;2.75;;;;;;;;;;4974832;28;20462;-65
2023/03/11 07:19:18;;;;;;;4.63;2.90;;;;;;;;;;4956372;28;20031;-65
2023/03/11 07:21:44;;;;;;;7.53;2.97;;;;;;;;;;4970173;28;20090;-65
2023/03/11 07:24:11;;;;;;;6.20;2.90;;;;;;;;;;4977159;28;20113;-65
2023/03/11 07:26:37;;;;;;;3.88;2.92;;;;;;;;;;4980654;28;20038;-65
2023/03/11 07:29:03;;;;;;;4.35;3.00;;;;;;;;;;4969563;28;20085;-65
2023/03/11 07:31:32;;;;;;;5.15;2.92;;;;;;;;;;4969345;28;20047;-65
2023/03/11 07:34:00;;;;;;;6.00;2.92;;;;;;;;;;4969321;28;20038;-65
2023/03/11 07:36:27;;;;;;;4.43;2.90;;;;;;;;;;4966852;28;20027;-65
2023/03/11 07:38:58;;;;;;;3.92;2.75;;;;;;;;;;4969774;28;20042;-65
2023/03/11 07:41:25;;;;;;;6.80;3.45;;;;;;;;;;4969673;28;20443;-65
2023/03/11 07:43:54;;;;;;;6.90;3.63;;;;;;;;;;4972337;28;20047;-65
2023/03/11 07:46:21;;;;;;;;;;;;;;;;;;4980373;28;20121;-65
2023/03/11 07:48:48;;;;;;;7.20;3.75;;;;;;;;;;4983570;28;19954;-64
2023/03/11 07:51:20;;;;;;;3.95;3.45;;;;;;;;;;4982518;28;20049;-66
2023/03/11 07:53:46;;;;;;;5.30;3.70;;;;;;;;;;4973197;28;20053;-67
2023/03/11 07:56:13;;;;;;;5.60;4.22;;;;;;;;;;4974288;28;20058;-66
2023/03/11 07:58:39;;;;;;;4.43;4.00;;;;;;;;;;4975732;28;20057;-66
2023/03/11 08:01:07;;;;;;;4.03;3.60;;;;;;;;;;4976060;28;20030;-66
2023/03/11 08:03:34;;;;;;;7.55;3.95;;;;;;;;;;4971926;28;20038;-66
2023/03/11 08:06:00;;;;;;;7.55;4.43;;;;;;;;;;4973101;28;20058;-65
2023/03/11 08:08:26;;;;;;;7.05;4.20;;;;;;;;;;4974752;28;20073;-67
2023/03/11 08:10:51;;;;;;;4.80;3.88;;;;;;;;;;4975437;28;20042;-67
2023/03/11 08:13:17;;;;;;;5.38;4.13;;;;;;;;;;4971172;28;20062;-68
2023/03/11 08:15:43;;;;;;;4.47;3.83;;;;;;;;;;4971212;28;20027;-67
2023/03/11 08:18:08;;;;;;;5.22;4.07;;;;;;;;;;4973849;28;20061;-66
2023/03/11 08:20:37;;;;;;;8.45;4.22;;;;;;;;;;4972350;28;20116;-66
2023/03/11 08:23:02;;;;;;;4.80;3.72;;;;;;;;;;4972222;28;20046;-66
2023/03/11 08:25:28;;;;;;;4.85;3.88;;;;;;;;;;4972446;28;20035;-66
2023/03/11 08:27:54;;;;;;;6.22;3.90;;;;;;;;;;4977048;28;20375;-66
2023/03/11 08:30:20;;;;;;;4.78;3.70;;;;;;;;;;4971599;28;20045;-66
2023/03/11 08:32:46;;;;;;;5.78;3.90;;;;;;;;;;4976352;28;20517;-66
2023/03/11 08:35:11;;;;;;;4.55;3.40;;;;;;;;;;4981658;28;20097;-66
2023/03/11 08:37:37;;;;;;;5.00;3.55;;;;;;;;;;4971285;28;20027;-67
2023/03/11 08:40:03;;;;;;;6.18;3.80;;;;;;;;;;4973273;28;20038;-67
2023/03/11 08:42:29;;;;;;;4.85;3.58;;;;;;;;;;4986974;28;20469;-66
2023/03/11 08:44:55;;;;;;;6.03;3.78;;;;;;;;;;4972094;28;20030;-67
2023/03/11 08:47:20;;;;;;;7.00;3.80;;;;;;;;;;4980776;28;20104;-65
2023/03/11 08:49:46;;;;;;;5.75;3.80;;;;;;;;;;4977801;28;20039;-65
2023/03/11 08:52:11;;;;;;;6.53;3.80;;;;;;;;;;4980751;28;20023;-66
2023/03/11 08:54:37;;;;;;;7.47;4.90;;;;;;;;;;4971832;28;20169;-66
2023/03/11 08:57:03;;;;;;;9.85;4.53;;;;;;;;;;4973873;28;20101;-66
2023/03/11 08:59:29;;;;;;;10.82;5.00;;;;;;;;;;4975987;28;20042;-66
2023/03/11 09:01:55;;;;;;;4.20;3.78;;;;;;;;;;4969983;28;20659;-66
2023/03/11 09:04:21;;;;;;;6.53;4.15;;;;;;;;;;4973615;28;20031;-66
2023/03/11 09:06:47;;;;;;;4.47;4.10;;;;;;;;;;4975565;28;20409;-66
2023/03/11 09:09:15;;;;;;;8.18;4.53;;;;;;;;;;4988707;28;20032;-66
2023/03/11 09:11:41;;;;;;;4.70;4.30;;;;;;;;;;4982446;28;20039;-66
2023/03/11 09:14:06;;;;;;;4.10;3.88;;;;;;;;;;4971603;28;20520;-66
2023/03/11 09:16:33;;;;;;;4.63;3.65;;;;;;;;;;4973497;28;20590;-66
2023/03/11 09:19:05;;;;;;;6.30;3.83;;;;;;;;;;4987041;28;20050;-66
2023/03/11 09:21:32;;;;;;;5.15;4.00;;;;;;;;;;4971966;28;20038;-66
2023/03/11 09:23:58;;;;;;;5.15;4.43;;;;;;;;;;4971187;28;20490;-66
2023/03/11 09:26:24;;;;;;;5.47;4.35;;;;;;;;;;4971901;28;20039;-66
2023/03/11 09:28:50;;;;;;;11.48;4.53;;;;;;;;;;4974406;28;20741;-66
2023/03/11 09:31:17;;;;;;;4.80;4.38;;;;;;;;;;4969136;28;20047;-67
2023/03/11 09:33:43;;;;;;;4.78;4.30;;;;;;;;;;4969127;28;20490;-66
2023/03/11 09:36:18;;;;;;;7.32;4.20;;;;;;;;;;4972355;28;20038;-66
2023/03/11 09:38:43;;;;;;;5.00;4.57;;;;;;;;;;4969542;28;20532;-66
2023/03/11 09:41:15;;;;;;;6.97;4.60;;;;;;;;;;4970325;28;20046;-66
2023/03/11 09:43:53;;;;;;;4.93;4.40;;;;;;;;;;4971443;28;20039;-66
2023/03/11 09:46:37;;;;;;;7.30;4.60;;;;;;;;;;4970365;28;20040;-66
2023/03/11 09:49:43;;;;;;;5.72;4.60;;;;;;;;;;4969523;28;20305;-67
2023/03/11 09:52:11;;;;;;;7.60;4.50;;;;;;;;;;4969696;28;20141;-66
2023/03/11 09:54:51;;;;;;;4.95;4.55;;;;;;;;;;4968947;28;20497;-67
2023/03/11 09:57:21;;;;;;;4.43;4.00;;;;;;;;;;4969322;28;20031;-66
2023/03/11 09:59:47;;;;;;;3.80;3.50;;;;;;;;;;4968339;28;20081;-68
2023/03/11 10:02:19;;;;;;;3.50;3.28;;;;;;;;;;4974478;28;20089;-67
2023/03/11 10:04:55;;;;;;;3.63;3.42;;;;;;;;;;4973294;28;20043;-67
2023/03/11 10:07:26;;;;;;;3.95;3.70;;;;;;;;;;4978211;28;20035;-66
2023/03/11 10:09:55;;;;;;;4.20;3.80;;;;;;;;;;4969732;28;20070;-66
2023/03/11 10:13:05;;;;;;;4.32;3.92;;;;;;;;;;4968726;28;20133;-66
2023/03/11 10:15:47;;;;;;;3.95;3.65;;;;;;;;;;4959115;28;20116;-66
2023/03/11 10:18:43;;;;;;;7.97;4.15;;;;;;;;;;4969556;28;20555;-66
2023/03/11 10:21:27;;;;;;;5.40;4.70;;;;;;;;;;4964148;28;20042;-67
2023/03/11 10:24:36;;;;;;;5.65;4.70;;;;;;;;;;4976827;28;20066;-67
2023/03/11 10:27:10;;;;;;;5.57;4.82;;;;;;;;;;4974001;28;20073;-67
2023/03/11 10:29:55;;;;;;;5.30;4.68;;;;;;;;;;4961185;28;20034;-67
2023/03/11 10:32:37;;;;;;;5.07;4.63;;;;;;;;;;4971496;28;20038;-67
2023/03/11 10:35:17;;;;;;;4.20;3.90;;;;;;;;;;4976709;28;20767;-66
2023/03/11 10:37:55;;;;;;;6.85;5.95;;;;;;;;;;4977977;28;20030;-67
2023/03/11 10:40:30;;;;;;;8.10;6.00;;;;;;;;;;4971530;28;20031;-67
2023/03/11 10:42:59;;;;;;;6.28;4.95;;;;;;;;;;4970793;28;20325;-67
2023/03/11 10:45:26;;;;;;;;;;;;;;;;;;4973220;28;20058;-67
2023/03/11 10:47:51;;;;;;;3.95;3.75;;;;;;;;;;4968771;28;20014;-67
2023/03/11 10:50:18;;;;;;;6.10;4.70;;;;;;;;;;4972680;28;20455;-66
2023/03/11 10:53:04;;;;;;;4.28;3.88;;;;;;;;;;4970639;28;20122;-67
2023/03/11 10:55:29;;;;;;;7.10;5.05;;;;;;;;;;4959334;28;20039;-67
2023/03/11 10:58:10;;;;;;;9.35;4.75;;;;;;;;;;4967473;28;20049;-67
2023/03/11 11:00:36;;;;;;;4.55;4.28;;;;;;;;;;4969532;28;20113;-67
2023/03/11 11:03:03;;;;;;;5.72;4.93;;;;;;;;;;4974411;28;20177;-67
2023/03/11 11:05:31;;;;;;;6.35;3.88;;;;;;;;;;4968595;28;20037;-67
2023/03/11 11:08:15;;;;;;;4.32;3.60;;;;;;;;;;4963951;28;20039;-67
2023/03/11 11:10:56;;;;;;;4.22;3.78;;;;;;;;;;4983201;28;20042;-67
2023/03/11 11:13:29;;;;;;;10.63;5.47;;;;;;;;;;4964120;28;20034;-64
2023/03/11 11:16:19;;;;;;;12.02;7.10;;;;;;;;;;4981628;28;20088;-67
2023/03/11 11:18:48;;;;;;;18.23;10.13;;;;;;;;;;4976465;28;20049;-67
2023/03/11 11:21:26;;;;;;;6.55;4.50;;;;;;;;;;4981090;28;20045;-67
2023/03/11 11:24:13;;;;;;;5.07;4.57;;;;;;;;;;4972995;28;20604;-67
2023/03/11 11:26:38;;;;;;;6.10;5.25;;;;;;;;;;4982420;28;20042;-67
2023/03/11 11:29:10;;;;;;;5.03;4.50;;;;;;;;;;4973048;28;20030;-67
2023/03/11 11:31:43;;;;;;;4.65;4.35;;;;;;;;;;4971434;28;20454;-67
2023/03/11 11:34:30;;;;;;;5.50;4.50;;;;;;;;;;4978252;28;20114;-67
2023/03/11 11:36:59;;;;;;;7.25;4.20;;;;;;;;;;4984159;28;20031;-67
2023/03/11 11:39:27;;;;;;;4.43;4.03;;;;;;;;;;4974157;28;20117;-67
2023/03/11 11:41:54;;;;;;;4.68;4.30;;;;;;;;;;4981262;28;20046;-67
2023/03/11 11:44:21;;;;;;;4.53;4.15;;;;;;;;;;4984147;28;20038;-67
2023/03/11 11:46:56;;;;;;;5.85;4.32;;;;;;;;;;4974805;28;20077;-67
2023/03/11 11:49:22;;;;;;;4.93;4.22;;;;;;;;;;4973715;28;20045;-67
2023/03/11 11:51:57;;;;;;;4.70;3.72;;;;;;;;;;4971322;28;20039;-67
2023/03/11 11:54:36;;;;;;;8.73;4.50;;;;;;;;;;4970887;28;20045;-67
2023/03/11 11:57:16;;;;;;;5.95;4.57;;;;;;;;;;4971641;28;20450;-67
2023/03/11 11:59:43;;;;;;;5.68;4.75;;;;;;;;;;4972743;28;20046;-67
2023/03/11 12:02:27;;;;;;;6.45;5.45;;;;;;;;;;4969411;28;20042;-67
2023/03/11 12:05:16;;;;;;;6.60;4.30;;;;;;;;;;4972374;28;20459;-67
2023/03/11 12:07:48;;;;;;;;;;;;;;;;;;4972976;28;20047;-67
2023/03/11 12:10:52;;;;;;;4.32;4.03;;;;;;;;;;4970734;28;20319;-67
2023/03/11 12:13:25;;;;;;;5.47;4.28;;;;;;;;;;4988196;28;20172;-67
2023/03/11 12:16:12;;;;;;;4.28;4.00;;;;;;;;;;4989966;28;20038;-67
2023/03/11 12:18:46;;;;;;;4.57;4.18;;;;;;;;;;4988650;28;20042;-67
2023/03/11 12:21:41;;;;;;;6.30;3.83;;;;;;;;;;4999699;28;20046;-68
2023/03/11 12:24:21;;;;;;;5.07;4.35;;;;;;;;;;5014372;28;20056;-67
2023/03/11 12:26:48;;;;;;;4.97;4.10;;;;;;;;;;4995121;28;20136;-67
2023/03/11 12:29:25;;;;;;;6.00;4.40;;;;;;;;;;4986104;28;20049;-67
2023/03/11 12:31:52;;;;;;;5.93;5.45;;;;;;;;;;4986583;28;20073;-67
2023/03/11 12:34:20;;;;;;;5.10;4.70;;;;;;;;;;4982147;28;20046;-67
2023/03/11 12:36:47;;;;;;;4.68;4.30;;;;;;;;;;4982372;28;20133;-67
2023/03/11 12:39:23;;;;;;;5.00;4.30;;;;;;;;;;4987686;28;20050;-67
2023/03/11 12:42:09;;;;;;;4.63;4.25;;;;;;;;;;4987510;28;20050;-68
2023/03/11 12:44:35;;;;;;;5.90;3.72;;;;;;;;;;4980723;28;20038;-67
2023/03/11 12:47:16;;;;;;;4.72;4.35;;;;;;;;;;4979733;28;20055;-67
2023/03/11 12:49:47;;;;;;;4.63;4.30;;;;;;;;;;4970476;28;20478;-67
2023/03/11 12:52:13;;;;;;;4.43;4.13;;;;;;;;;;4969489;28;20113;-67
2023/03/11 12:54:48;;;;;;;3.97;3.70;;;;;;;;;;4981662;28;20146;-67
2023/03/11 12:57:17;;;;;;;4.30;4.00;;;;;;;;;;4969299;28;20037;-67
2023/03/11 12:59:54;;;;;;;5.93;3.50;;;;;;;;;;4968847;28;20147;-68
2023/03/11 13:02:35;;;;;;;4.25;3.90;;;;;;;;;;4974501;28;20053;-68
2023/03/11 13:05:16;;;;;;;6.65;4.75;;;;;;;;;;4965720;28;20414;-68
2023/03/11 13:07:50;;;;;;;21.60;10.93;;;;;;;;;;4969087;28;20066;-67
2023/03/11 13:10:36;;;;;;;4.32;4.03;;;;;;;;;;4969139;28;20031;-67
2023/03/11 13:13:21;;;;;;;5.05;3.95;;;;;;;;;;4970524;28;20126;-67
2023/03/11 13:15:47;;;;;;;4.78;4.18;;;;;;;;;;4970737;28;20050;-67
2023/03/11 13:18:17;;;;;;;4.55;3.75;;;;;;;;;;4978271;28;20034;-67
2023/03/11 13:20:48;;;;;;;6.43;4.20;;;;;;;;;;4974484;28;20046;-67
2023/03/11 13:23:13;;;;;;;4.90;4.00;;;;;;;;;;4968763;28;20058;-67
2023/03/11 13:25:39;;;;;;;4.00;3.63;;;;;;;;;;4968965;28;20217;-67
2023/03/11 13:28:23;;;;;;;8.70;5.18;;;;;;;;;;4970186;28;20038;-67
2023/03/11 13:31:28;;;;;;;4.15;3.70;;;;;;;;;;4978012;28;20050;-67
2023/03/11 13:33:56;;;;;;;4.85;3.83;;;;;;;;;;4968226;28;20030;-67
2023/03/11 13:36:44;;;;;;;4.10;3.80;;;;;;;;;;4969329;28;20027;-67
2023/03/11 13:39:33;;;;;;;5.95;3.70;;;;;;;;;;4967200;28;20054;-67
2023/03/11 13:41:59;;;;;;;3.83;3.53;;;;;;;;;;4971420;28;20042;-67
2023/03/11 13:44:33;;;;;;;4.60;3.80;;;;;;;;;;4978961;28;20038;-65
2023/03/11 13:47:08;;;;;;;4.63;4.20;;;;;;;;;;4973650;28;20114;-67
2023/03/11 13:49:57;;;;;;;4.70;4.13;;;;;;;;;;4968597;28;20030;-66
2023/03/11 13:52:31;;;;;;;4.80;4.30;;;;;;;;;;4977137;28;20038;-68
2023/03/11 13:55:02;;;;;;;7.93;6.20;;;;;;;;;;4980915;28;20042;-68
2023/03/11 13:57:30;;;;;;;4.70;4.20;;;;;;;;;;4968602;28;20073;-68
2023/03/11 14:00:04;;;;;;;3.67;3.38;;;;;;;;;;4969510;28;20482;-66
2023/03/11 14:02:36;;;;;;;5.10;3.40;;;;;;;;;;4968729;28;20121;-67
2023/03/11 14:05:05;;;;;;;4.10;3.70;;;;;;;;;;4969620;28;20126;-66
2023/03/11 14:07:33;;;;;;;4.22;3.67;;;;;;;;;;4970783;28;20035;-66
2023/03/11 14:10:16;;;;;;;5.70;4.32;;;;;;;;;;4980933;28;20117;-68
2023/03/11 14:12:42;;;;;;;4.65;4.15;;;;;;;;;;4968568;28;20520;-68
2023/03/11 14:15:13;;;;;;;4.13;3.80;;;;;;;;;;4972367;28;20035;-68
2023/03/11 14:17:39;;;;;;;5.85;4.03;;;;;;;;;;4969623;28;20041;-68
2023/03/11 14:20:06;;;;;;;4.93;3.58;;;;;;;;;;4978583;28;20038;-67
2023/03/11 14:22:32;;;;;;;4.40;3.70;;;;;;;;;;4969650;28;20039;-67
2023/03/11 14:25:08;;;;;;;5.35;3.65;;;;;;;;;;4966718;28;20109;-68
2023/03/11 14:27:36;;;;;;;3.78;3.47;;;;;;;;;;4969843;28;20073;-67
2023/03/11 14:30:03;;;;;;;4.70;3.90;;;;;;;;;;4967453;28;20105;-65
2023/03/11 14:32:31;;;;;;;3.95;3.50;;;;;;;;;;4968221;28;20039;-67
2023/03/11 14:34:57;;;;;;;5.90;3.53;;;;;;;;;;4980983;28;20030;-67
2023/03/11 14:37:33;;;;;;;4.47;3.72;;;;;;;;;;4979891;28;20042;-67
2023/03/11 14:39:59;;;;;;;4.75;3.90;;;;;;;;;;4968068;28;20031;-67
2023/03/11 14:42:25;;;;;;;7.00;3.70;;;;;;;;;;4968700;28;20383;-67
2023/03/11 14:45:01;;;;;;;4.28;3.45;;;;;;;;;;4980171;28;20038;-67
2023/03/11 14:47:53;;;;;;;4.63;3.30;;;;;;;;;;4970301;28;20035;-67
2023/03/11 14:50:23;;;;;;;4.20;3.80;;;;;;;;;;4974630;28;20037;-67
2023/03/11 14:52:59;;;;;;;3.80;3.30;;;;;;;;;;4977735;28;20054;-67
2023/03/11 14:55:31;;;;;;;6.43;3.65;;;;;;;;;;4976849;28;20036;-67
2023/03/11 14:58:10;;;;;;;3.63;3.33;;;;;;;;;;4987194;28;20047;-67
2023/03/11 15:00:42;;;;;;;3.53;3.33;;;;;;;;;;4973417;28;20070;-68